sensor_id;sensor_type;location;lat;lon;timestamp;pressure;altitude;pressure_sealevel;temperature;humidity
75998;BME280;64685;48.762;44.822;2023-05-18T00:02:15;101145.84;;;16.70;49.36
75998;BME280;64685;48.762;44.822;2023-05-18T00:07:18;101154.91;;;16.63;49.37
75998;BME280;64685;48.762;44.822;2023-05-18T00:12:21;101147.63;;;16.50;49.72
75998;BME280;64685;48.762;44.822;2023-05-18T00:17:23;101151.94;;;16.36;50.27
75998;BME280;64685;48.762;44.822;2023-05-18T00:22:26;101157.66;;;16.15;50.72
75998;BME280;64685;48.762;44.822;2023-05-18T00:27:28;101161.03;;;16.09;50.63
75998;BME280;64685;48.762;44.822;2023-05-18T00:32:36;101155.03;;;15.98;50.76
75998;BME280;64685;48.762;44.822;2023-05-18T00:37:40;101154.19;;;15.86;51.26
75998;BME280;64685;48.762;44.822;2023-05-18T00:42:43;101161.75;;;15.73;51.70
75998;BME280;64685;48.762;44.822;2023-05-18T00:47:46;101163.72;;;15.61;51.73
75998;BME280;64685;48.762;44.822;2023-05-18T00:52:49;101139.16;;;15.49;52.06
75998;BME280;64685;48.762;44.822;2023-05-18T00:57:54;101152.38;;;15.49;51.96
75998;BME280;64685;48.762;44.822;2023-05-18T01:02:57;101169.34;;;15.40;52.34
75998;BME280;64685;48.762;44.822;2023-05-18T01:08:01;101170.56;;;15.31;52.46
75998;BME280;64685;48.762;44.822;2023-05-18T01:13:14;101159.19;;;15.27;52.68
75998;BME280;64685;48.762;44.822;2023-05-18T01:18:30;101160.00;;;15.28;52.37
75998;BME280;64685;48.762;44.822;2023-05-18T01:29:01;101161.59;;;15.17;52.36
75998;BME280;64685;48.762;44.822;2023-05-18T01:34:05;101162.97;;;15.11;52.74
75998;BME280;64685;48.762;44.822;2023-05-18T01:39:08;101172.53;;;15.10;52.90
75998;BME280;64685;48.762;44.822;2023-05-18T01:44:20;101177.16;;;15.14;52.89
75998;BME280;64685;48.762;44.822;2023-05-18T01:54:49;101177.19;;;15.35;52.97
75998;BME280;64685;48.762;44.822;2023-05-18T01:59:52;101186.75;;;15.75;52.00
75998;BME280;64685;48.762;44.822;2023-05-18T02:04:57;101192.50;;;16.11;51.76
75998;BME280;64685;48.762;44.822;2023-05-18T02:09:59;101180.16;;;16.48;50.48
75998;BME280;64685;48.762;44.822;2023-05-18T02:15:05;101177.94;;;16.89;49.79
75998;BME280;64685;48.762;44.822;2023-05-18T02:20:10;101194.56;;;17.30;49.11
75998;BME280;64685;48.762;44.822;2023-05-18T02:25:12;101205.38;;;17.80;48.24
75998;BME280;64685;48.762;44.822;2023-05-18T02:30:15;101203.66;;;18.18;47.50
75998;BME280;64685;48.762;44.822;2023-05-18T02:35:18;101212.69;;;18.51;46.37
75998;BME280;64685;48.762;44.822;2023-05-18T02:40:20;101203.78;;;18.99;45.43
75998;BME280;64685;48.762;44.822;2023-05-18T02:45:23;101204.28;;;19.36;44.84
75998;BME280;64685;48.762;44.822;2023-05-18T02:50:26;101219.38;;;19.59;44.35
75998;BME280;64685;48.762;44.822;2023-05-18T02:55:29;101215.94;;;19.88;43.65
75998;BME280;64685;48.762;44.822;2023-05-18T03:00:48;101231.53;;;20.35;42.88
75998;BME280;64685;48.762;44.822;2023-05-18T03:05:53;101231.19;;;20.82;42.13
75998;BME280;64685;48.762;44.822;2023-05-18T03:10:56;101232.97;;;21.12;41.48
75998;BME280;64685;48.762;44.822;2023-05-18T03:15:59;101233.19;;;21.26;40.91
75998;BME280;64685;48.762;44.822;2023-05-18T03:21:02;101234.66;;;21.69;40.19
75998;BME280;64685;48.762;44.822;2023-05-18T03:26:05;101239.53;;;22.31;39.37
75998;BME280;64685;48.762;44.822;2023-05-18T03:31:11;101238.09;;;22.87;38.46
75998;BME280;64685;48.762;44.822;2023-05-18T03:36:14;101240.81;;;23.17;37.81
75998;BME280;64685;48.762;44.822;2023-05-18T03:41:18;101244.63;;;23.38;37.39
75998;BME280;64685;48.762;44.822;2023-05-18T03:46:21;101248.72;;;23.37;37.13
75998;BME280;64685;48.762;44.822;2023-05-18T03:51:23;101254.16;;;23.60;36.85
75998;BME280;64685;48.762;44.822;2023-05-18T03:56:28;101251.28;;;24.38;36.37
75998;BME280;64685;48.762;44.822;2023-05-18T04:01:32;101248.53;;;24.73;35.89
75998;BME280;64685;48.762;44.822;2023-05-18T04:06:35;101246.91;;;24.65;35.24
75998;BME280;64685;48.762;44.822;2023-05-18T04:11:38;101250.19;;;25.69;34.21
75998;BME280;64685;48.762;44.822;2023-05-18T04:16:40;101251.59;;;26.36;33.45
75998;BME280;64685;48.762;44.822;2023-05-18T04:21:44;101249.72;;;26.81;33.02
75998;BME280;64685;48.762;44.822;2023-05-18T04:26:48;101255.94;;;27.27;31.94
75998;BME280;64685;48.762;44.822;2023-05-18T04:31:51;101255.25;;;27.56;31.23
75998;BME280;64685;48.762;44.822;2023-05-18T04:36:56;101256.09;;;27.94;30.57
75998;BME280;64685;48.762;44.822;2023-05-18T04:42:01;101246.56;;;28.64;30.04
75998;BME280;64685;48.762;44.822;2023-05-18T04:47:05;101241.53;;;28.98;29.81
75998;BME280;64685;48.762;44.822;2023-05-18T04:52:11;101248.00;;;29.05;29.74
75998;BME280;64685;48.762;44.822;2023-05-18T04:57:14;101242.22;;;29.55;28.71
75998;BME280;64685;48.762;44.822;2023-05-18T05:02:16;101250.63;;;30.08;28.31
75998;BME280;64685;48.762;44.822;2023-05-18T05:07:19;101247.97;;;30.36;27.66
75998;BME280;64685;48.762;44.822;2023-05-18T05:12:22;101247.03;;;30.43;27.06
75998;BME280;64685;48.762;44.822;2023-05-18T05:17:25;101245.19;;;31.52;26.43
75998;BME280;64685;48.762;44.822;2023-05-18T05:22:27;101241.84;;;30.89;26.54
75998;BME280;64685;48.762;44.822;2023-05-18T05:27:30;101244.22;;;31.26;26.26
75998;BME280;64685;48.762;44.822;2023-05-18T05:32:33;101232.56;;;32.19;25.49
75998;BME280;64685;48.762;44.822;2023-05-18T05:37:37;101241.59;;;32.49;25.58
75998;BME280;64685;48.762;44.822;2023-05-18T05:42:41;101230.91;;;33.00;24.88
75998;BME280;64685;48.762;44.822;2023-05-18T05:47:46;101240.84;;;32.99;24.72
75998;BME280;64685;48.762;44.822;2023-05-18T05:52:53;101231.53;;;32.41;24.70
75998;BME280;64685;48.762;44.822;2023-05-18T05:57:57;101224.06;;;33.31;23.72
75998;BME280;64685;48.762;44.822;2023-05-18T06:03:00;101235.16;;;34.35;23.67
75998;BME280;64685;48.762;44.822;2023-05-18T06:08:08;101219.56;;;34.41;22.92
75998;BME280;64685;48.762;44.822;2023-05-18T06:13:11;101229.41;;;34.44;23.35
75998;BME280;64685;48.762;44.822;2023-05-18T06:18:25;101221.22;;;34.08;22.23
75998;BME280;64685;48.762;44.822;2023-05-18T06:23:33;101230.94;;;33.93;22.20
75998;BME280;64685;48.762;44.822;2023-05-18T06:28:36;101215.97;;;32.89;22.39
75998;BME280;64685;48.762;44.822;2023-05-18T06:34:02;101215.69;;;34.23;21.84
75998;BME280;64685;48.762;44.822;2023-05-18T06:39:05;101214.81;;;33.58;21.78
75998;BME280;64685;48.762;44.822;2023-05-18T06:44:08;101207.81;;;34.23;22.10
75998;BME280;64685;48.762;44.822;2023-05-18T06:49:12;101218.06;;;34.89;20.99
75998;BME280;64685;48.762;44.822;2023-05-18T06:54:15;101216.44;;;34.88;20.22
75998;BME280;64685;48.762;44.822;2023-05-18T06:59:18;101215.31;;;34.33;20.61
75998;BME280;64685;48.762;44.822;2023-05-18T07:04:20;101226.78;;;35.37;20.37
75998;BME280;64685;48.762;44.822;2023-05-18T07:09:24;101215.66;;;34.66;19.91
75998;BME280;64685;48.762;44.822;2023-05-18T07:14:27;101216.31;;;35.31;19.85
75998;BME280;64685;48.762;44.822;2023-05-18T07:19:29;101222.88;;;34.31;20.02
75998;BME280;64685;48.762;44.822;2023-05-18T07:24:32;101222.91;;;34.61;20.66
75998;BME280;64685;48.762;44.822;2023-05-18T07:29:34;101214.00;;;34.56;20.21
75998;BME280;64685;48.762;44.822;2023-05-18T07:34:36;101219.16;;;35.22;19.45
75998;BME280;64685;48.762;44.822;2023-05-18T07:39:39;101209.53;;;34.12;19.77
75998;BME280;64685;48.762;44.822;2023-05-18T07:44:42;101205.47;;;34.09;20.51
75998;BME280;64685;48.762;44.822;2023-05-18T07:49:44;101203.22;;;35.35;19.85
75998;BME280;64685;48.762;44.822;2023-05-18T07:54:47;101196.19;;;35.72;20.90
75998;BME280;64685;48.762;44.822;2023-05-18T07:59:50;101186.63;;;34.66;21.34
75998;BME280;64685;48.762;44.822;2023-05-18T08:04:52;101170.66;;;33.54;21.93
75998;BME280;64685;48.762;44.822;2023-05-18T08:09:55;101169.56;;;33.26;21.61
75998;BME280;64685;48.762;44.822;2023-05-18T08:14:58;101172.47;;;33.39;22.03
75998;BME280;64685;48.762;44.822;2023-05-18T08:20:01;101162.31;;;31.93;23.39
75998;BME280;64685;48.762;44.822;2023-05-18T08:25:05;101161.06;;;30.89;23.36
75998;BME280;64685;48.762;44.822;2023-05-18T08:30:08;101158.03;;;30.06;24.37
75998;BME280;64685;48.762;44.822;2023-05-18T08:35:11;101152.00;;;29.61;25.73
75998;BME280;64685;48.762;44.822;2023-05-18T08:40:13;101152.75;;;30.40;25.83
75998;BME280;64685;48.762;44.822;2023-05-18T08:50:22;101144.16;;;28.96;26.89
75998;BME280;64685;48.762;44.822;2023-05-18T08:55:27;101159.69;;;30.78;24.53
75998;BME280;64685;48.762;44.822;2023-05-18T09:00:31;101163.34;;;31.42;24.15
75998;BME280;64685;48.762;44.822;2023-05-18T09:05:35;101153.25;;;29.99;24.73
75998;BME280;64685;48.762;44.822;2023-05-18T09:10:39;101153.22;;;29.41;25.52
75998;BME280;64685;48.762;44.822;2023-05-18T09:15:41;101137.88;;;29.86;24.87
75998;BME280;64685;48.762;44.822;2023-05-18T09:20:44;101135.84;;;29.02;26.17
75998;BME280;64685;48.762;44.822;2023-05-18T09:25:47;101138.53;;;28.36;26.49
75998;BME280;64685;48.762;44.822;2023-05-18T09:30:52;101136.88;;;28.39;26.91
75998;BME280;64685;48.762;44.822;2023-05-18T09:35:55;101139.72;;;29.15;26.50
75998;BME280;64685;48.762;44.822;2023-05-18T09:40:58;101131.34;;;29.43;25.32
75998;BME280;64685;48.762;44.822;2023-05-18T09:46:08;101120.34;;;30.52;24.64
75998;BME280;64685;48.762;44.822;2023-05-18T09:51:12;101121.81;;;29.27;24.90
75998;BME280;64685;48.762;44.822;2023-05-18T09:56:18;101129.91;;;28.36;26.37
75998;BME280;64685;48.762;44.822;2023-05-18T10:01:21;101131.94;;;30.32;25.06
75998;BME280;64685;48.762;44.822;2023-05-18T10:06:25;101119.91;;;30.18;25.46
75998;BME280;64685;48.762;44.822;2023-05-18T10:11:31;101108.50;;;29.13;25.21
75998;BME280;64685;48.762;44.822;2023-05-18T10:16:34;101114.84;;;28.29;24.51
75998;BME280;64685;48.762;44.822;2023-05-18T10:21:37;101105.06;;;27.96;24.82
75998;BME280;64685;48.762;44.822;2023-05-18T10:26:41;101103.97;;;30.13;22.85
75998;BME280;64685;48.762;44.822;2023-05-18T10:31:45;101097.75;;;29.17;23.16
75998;BME280;64685;48.762;44.822;2023-05-18T10:36:48;101093.81;;;28.35;24.83
75998;BME280;64685;48.762;44.822;2023-05-18T10:41:53;101100.72;;;27.85;25.06
75998;BME280;64685;48.762;44.822;2023-05-18T10:46:57;101100.44;;;27.39;26.79
75998;BME280;64685;48.762;44.822;2023-05-18T10:52:01;101100.13;;;27.30;26.88
75998;BME280;64685;48.762;44.822;2023-05-18T10:57:04;101094.53;;;27.19;27.31
75998;BME280;64685;48.762;44.822;2023-05-18T11:02:07;101089.81;;;27.36;26.33
75998;BME280;64685;48.762;44.822;2023-05-18T11:07:12;101083.38;;;27.92;25.99
75998;BME280;64685;48.762;44.822;2023-05-18T11:12:17;101079.22;;;28.23;25.29
75998;BME280;64685;48.762;44.822;2023-05-18T11:17:24;101085.34;;;27.98;26.19
75998;BME280;64685;48.762;44.822;2023-05-18T11:27:47;101096.47;;;26.89;29.26
75998;BME280;64685;48.762;44.822;2023-05-18T11:32:51;101098.00;;;26.53;30.39
75998;BME280;64685;48.762;44.822;2023-05-18T11:37:54;101097.28;;;26.35;30.70
75998;BME280;64685;48.762;44.822;2023-05-18T11:42:59;101085.66;;;27.03;30.59
75998;BME280;64685;48.762;44.822;2023-05-18T11:48:01;101083.59;;;27.78;28.52
75998;BME280;64685;48.762;44.822;2023-05-18T11:53:06;101076.28;;;28.00;28.48
75998;BME280;64685;48.762;44.822;2023-05-18T11:58:08;101072.00;;;27.85;28.40
75998;BME280;64685;48.762;44.822;2023-05-18T12:03:11;101073.13;;;27.91;28.61
75998;BME280;64685;48.762;44.822;2023-05-18T12:08:17;101076.59;;;27.75;27.51
75998;BME280;64685;48.762;44.822;2023-05-18T12:13:22;101091.03;;;27.38;27.09
75998;BME280;64685;48.762;44.822;2023-05-18T12:18:27;101074.22;;;27.00;28.86
75998;BME280;64685;48.762;44.822;2023-05-18T12:23:37;101076.53;;;27.12;28.10
75998;BME280;64685;48.762;44.822;2023-05-18T12:28:40;101075.56;;;27.29;27.33
75998;BME280;64685;48.762;44.822;2023-05-18T12:33:43;101065.81;;;27.53;28.47
75998;BME280;64685;48.762;44.822;2023-05-18T12:38:52;101072.25;;;27.64;27.87
75998;BME280;64685;48.762;44.822;2023-05-18T12:43:54;101076.78;;;27.61;27.67
75998;BME280;64685;48.762;44.822;2023-05-18T12:48:57;101061.44;;;27.45;28.45
75998;BME280;64685;48.762;44.822;2023-05-18T12:54:03;101069.53;;;27.20;28.34
75998;BME280;64685;48.762;44.822;2023-05-18T12:59:06;101079.22;;;26.92;29.05
75998;BME280;64685;48.762;44.822;2023-05-18T13:04:10;101086.28;;;26.84;29.32
75998;BME280;64685;48.762;44.822;2023-05-18T13:09:14;101077.94;;;26.97;29.06
75998;BME280;64685;48.762;44.822;2023-05-18T13:14:20;101068.34;;;27.17;28.35
75998;BME280;64685;48.762;44.822;2023-05-18T13:19:26;101068.97;;;27.32;28.17
75998;BME280;64685;48.762;44.822;2023-05-18T13:24:29;101088.88;;;27.46;27.68
75998;BME280;64685;48.762;44.822;2023-05-18T13:29:31;101089.50;;;27.30;27.44
75998;BME280;64685;48.762;44.822;2023-05-18T13:34:35;101086.31;;;27.21;27.45
75998;BME280;64685;48.762;44.822;2023-05-18T13:39:37;101090.59;;;27.03;27.51
75998;BME280;64685;48.762;44.822;2023-05-18T13:44:40;101080.16;;;26.79;27.70
75998;BME280;64685;48.762;44.822;2023-05-18T13:49:42;101077.75;;;26.74;28.28
75998;BME280;64685;48.762;44.822;2023-05-18T13:54:45;101081.59;;;26.57;27.57
75998;BME280;64685;48.762;44.822;2023-05-18T13:59:47;101087.25;;;26.13;27.62
75998;BME280;64685;48.762;44.822;2023-05-18T14:04:49;101073.47;;;25.90;28.12
75998;BME280;64685;48.762;44.822;2023-05-18T14:09:52;101080.03;;;25.80;28.49
75998;BME280;64685;48.762;44.822;2023-05-18T14:14:54;101081.75;;;25.67;28.75
75998;BME280;64685;48.762;44.822;2023-05-18T14:19:57;101075.63;;;25.62;29.01
75998;BME280;64685;48.762;44.822;2023-05-18T14:25:00;101088.41;;;25.47;29.02
75998;BME280;64685;48.762;44.822;2023-05-18T14:30:03;101090.03;;;25.48;28.74
75998;BME280;64685;48.762;44.822;2023-05-18T14:35:07;101085.56;;;25.36;28.86
75998;BME280;64685;48.762;44.822;2023-05-18T14:40:10;101079.88;;;25.29;29.14
75998;BME280;64685;48.762;44.822;2023-05-18T14:45:12;101092.13;;;25.16;29.21
75998;BME280;64685;48.762;44.822;2023-05-18T14:50:15;101092.56;;;25.07;29.31
75998;BME280;64685;48.762;44.822;2023-05-18T14:55:17;101082.38;;;24.96;29.96
75998;BME280;64685;48.762;44.822;2023-05-18T15:00:20;101076.72;;;24.64;30.90
75998;BME280;64685;48.762;44.822;2023-05-18T15:05:22;101082.38;;;24.54;31.12
75998;BME280;64685;48.762;44.822;2023-05-18T15:10:25;101082.81;;;24.35;32.04
75998;BME280;64685;48.762;44.822;2023-05-18T15:15:27;101091.38;;;24.28;31.76
75998;BME280;64685;48.762;44.822;2023-05-18T15:20:30;101085.25;;;24.40;31.21
75998;BME280;64685;48.762;44.822;2023-05-18T15:25:33;101075.47;;;24.41;30.95
75998;BME280;64685;48.762;44.822;2023-05-18T15:30:35;101094.22;;;24.42;31.05
75998;BME280;64685;48.762;44.822;2023-05-18T15:35:38;101096.25;;;24.27;31.30
75998;BME280;64685;48.762;44.822;2023-05-18T15:40:40;101095.03;;;24.14;31.69
75998;BME280;64685;48.762;44.822;2023-05-18T15:45:49;101094.59;;;23.95;31.97
75998;BME280;64685;48.762;44.822;2023-05-18T15:50:51;101098.97;;;23.75;32.72
75998;BME280;64685;48.762;44.822;2023-05-18T15:55:54;101107.03;;;23.59;32.97
75998;BME280;64685;48.762;44.822;2023-05-18T16:01:00;101109.03;;;23.44;33.43
75998;BME280;64685;48.762;44.822;2023-05-18T16:06:03;101112.22;;;23.29;33.62
75998;BME280;64685;48.762;44.822;2023-05-18T16:11:05;101103.94;;;23.10;33.57
75998;BME280;64685;48.762;44.822;2023-05-18T16:16:08;101107.94;;;22.98;33.91
75998;BME280;64685;48.762;44.822;2023-05-18T16:21:15;101107.00;;;22.80;34.03
75998;BME280;64685;48.762;44.822;2023-05-18T16:26:18;101112.53;;;22.63;34.70
75998;BME280;64685;48.762;44.822;2023-05-18T16:31:20;101121.34;;;22.44;35.24
75998;BME280;64685;48.762;44.822;2023-05-18T16:36:23;101117.47;;;22.26;35.60
75998;BME280;64685;48.762;44.822;2023-05-18T16:41:27;101120.53;;;22.07;36.00
75998;BME280;64685;48.762;44.822;2023-05-18T16:46:30;101126.88;;;21.93;36.23
75998;BME280;64685;48.762;44.822;2023-05-18T16:51:32;101130.03;;;21.85;35.88
75998;BME280;64685;48.762;44.822;2023-05-18T16:56:34;101129.09;;;21.74;35.92
75998;BME280;64685;48.762;44.822;2023-05-18T17:01:37;101139.41;;;21.56;36.02
75998;BME280;64685;48.762;44.822;2023-05-18T17:06:40;101148.97;;;21.41;35.81
75998;BME280;64685;48.762;44.822;2023-05-18T17:11:43;101148.84;;;21.34;35.54
75998;BME280;64685;48.762;44.822;2023-05-18T17:16:45;101152.38;;;21.24;35.83
75998;BME280;64685;48.762;44.822;2023-05-18T17:21:48;101147.72;;;21.12;35.39
75998;BME280;64685;48.762;44.822;2023-05-18T17:26:51;101147.13;;;21.00;35.39
75998;BME280;64685;48.762;44.822;2023-05-18T17:31:54;101157.19;;;20.94;35.03
75998;BME280;64685;48.762;44.822;2023-05-18T17:36:57;101151.69;;;20.82;34.49
75998;BME280;64685;48.762;44.822;2023-05-18T17:41:59;101148.75;;;20.75;33.98
75998;BME280;64685;48.762;44.822;2023-05-18T17:47:02;101152.63;;;20.67;33.94
75998;BME280;64685;48.762;44.822;2023-05-18T17:52:05;101150.91;;;20.59;33.62
75998;BME280;64685;48.762;44.822;2023-05-18T17:57:08;101158.53;;;20.55;33.46
75998;BME280;64685;48.762;44.822;2023-05-18T18:02:10;101142.78;;;20.35;34.51
75998;BME280;64685;48.762;44.822;2023-05-18T18:07:15;101151.31;;;20.16;34.91
75998;BME280;64685;48.762;44.822;2023-05-18T18:12:17;101155.38;;;19.96;35.97
75998;BME280;64685;48.762;44.822;2023-05-18T18:17:20;101154.28;;;19.81;35.95
75998;BME280;64685;48.762;44.822;2023-05-18T18:22:24;101151.81;;;19.80;35.74
75998;BME280;64685;48.762;44.822;2023-05-18T18:27:26;101154.94;;;19.75;35.85
75998;BME280;64685;48.762;44.822;2023-05-18T18:32:29;101151.94;;;19.49;36.75
75998;BME280;64685;48.762;44.822;2023-05-18T18:37:32;101164.84;;;19.27;37.43
75998;BME280;64685;48.762;44.822;2023-05-18T18:42:34;101164.88;;;19.12;37.56
75998;BME280;64685;48.762;44.822;2023-05-18T18:47:37;101171.09;;;19.02;37.74
75998;BME280;64685;48.762;44.822;2023-05-18T18:52:40;101171.72;;;18.95;37.66
75998;BME280;64685;48.762;44.822;2023-05-18T18:57:43;101175.94;;;18.86;37.80
75998;BME280;64685;48.762;44.822;2023-05-18T19:02:46;101187.09;;;18.79;38.24
75998;BME280;64685;48.762;44.822;2023-05-18T19:07:48;101188.94;;;18.71;38.46
75998;BME280;64685;48.762;44.822;2023-05-18T19:12:57;101188.69;;;18.61;38.52
75998;BME280;64685;48.762;44.822;2023-05-18T19:18:02;101180.00;;;18.54;39.00
75998;BME280;64685;48.762;44.822;2023-05-18T19:23:05;101184.56;;;18.58;39.07
75998;BME280;64685;48.762;44.822;2023-05-18T19:28:08;101188.84;;;18.68;39.17
75998;BME280;64685;48.762;44.822;2023-05-18T19:33:10;101191.59;;;18.64;39.30
75998;BME280;64685;48.762;44.822;2023-05-18T19:38:13;101193.16;;;18.62;39.60
75998;BME280;64685;48.762;44.822;2023-05-18T19:43:15;101188.50;;;18.54;40.01
75998;BME280;64685;48.762;44.822;2023-05-18T19:48:18;101183.47;;;18.47;40.28
75998;BME280;64685;48.762;44.822;2023-05-18T19:53:20;101192.03;;;18.35;40.57
75998;BME280;64685;48.762;44.822;2023-05-18T19:58:24;101191.88;;;18.16;41.10
75998;BME280;64685;48.762;44.822;2023-05-18T20:03:27;101197.66;;;17.92;41.71
75998;BME280;64685;48.762;44.822;2023-05-18T20:08:29;101195.25;;;17.79;42.11
75998;BME280;64685;48.762;44.822;2023-05-18T20:13:32;101204.25;;;17.69;42.43
75998;BME280;64685;48.762;44.822;2023-05-18T20:18:34;101205.22;;;17.61;42.63
75998;BME280;64685;48.762;44.822;2023-05-18T20:23:37;101208.78;;;17.46;43.64
75998;BME280;64685;48.762;44.822;2023-05-18T20:28:39;101208.34;;;17.20;44.48
75998;BME280;64685;48.762;44.822;2023-05-18T20:33:42;101206.25;;;16.93;45.26
75998;BME280;64685;48.762;44.822;2023-05-18T20:38:45;101198.63;;;16.69;46.08
75998;BME280;64685;48.762;44.822;2023-05-18T20:43:48;101205.31;;;16.53;46.62
75998;BME280;64685;48.762;44.822;2023-05-18T20:48:52;101202.00;;;16.39;46.79
75998;BME280;64685;48.762;44.822;2023-05-18T20:53:57;101203.59;;;16.28;47.57
75998;BME280;64685;48.762;44.822;2023-05-18T20:59:00;101204.75;;;16.27;47.44
75998;BME280;64685;48.762;44.822;2023-05-18T21:04:05;101203.34;;;16.21;48.01
75998;BME280;64685;48.762;44.822;2023-05-18T21:09:07;101215.56;;;16.25;47.89
75998;BME280;64685;48.762;44.822;2023-05-18T21:14:10;101201.34;;;16.21;48.14
75998;BME280;64685;48.762;44.822;2023-05-18T21:19:12;101199.22;;;16.18;48.18
75998;BME280;64685;48.762;44.822;2023-05-18T21:24:15;101203.69;;;16.19;48.43
75998;BME280;64685;48.762;44.822;2023-05-18T21:29:17;101200.41;;;16.17;48.83
75998;BME280;64685;48.762;44.822;2023-05-18T21:34:20;101200.28;;;16.14;48.80
75998;BME280;64685;48.762;44.822;2023-05-18T21:39:22;101198.50;;;16.09;49.82
75998;BME280;64685;48.762;44.822;2023-05-18T21:44:25;101200.94;;;15.99;49.98
75998;BME280;64685;48.762;44.822;2023-05-18T21:49:28;101201.84;;;15.91;50.59
75998;BME280;64685;48.762;44.822;2023-05-18T21:54:30;101202.41;;;15.84;50.63
75998;BME280;64685;48.762;44.822;2023-05-18T21:59:34;101205.31;;;15.76;51.00
75998;BME280;64685;48.762;44.822;2023-05-18T22:04:36;101201.88;;;15.70;50.97
75998;BME280;64685;48.762;44.822;2023-05-18T22:09:39;101205.59;;;15.62;52.08
75998;BME280;64685;48.762;44.822;2023-05-18T22:14:42;101216.59;;;15.55;52.56
75998;BME280;64685;48.762;44.822;2023-05-18T22:19:44;101201.63;;;15.43;52.84
75998;BME280;64685;48.762;44.822;2023-05-18T22:24:47;101221.31;;;15.43;53.35
75998;BME280;64685;48.762;44.822;2023-05-18T22:29:50;101216.59;;;15.35;53.35
75998;BME280;64685;48.762;44.822;2023-05-18T22:34:52;101213.69;;;15.23;53.91
75998;BME280;64685;48.762;44.822;2023-05-18T22:39:57;101220.47;;;15.22;53.75
75998;BME280;64685;48.762;44.822;2023-05-18T22:45:00;101217.50;;;15.18;54.12
75998;BME280;64685;48.762;44.822;2023-05-18T22:50:06;101220.69;;;15.17;54.26
75998;BME280;64685;48.762;44.822;2023-05-18T22:55:09;101230.06;;;15.21;54.13
75998;BME280;64685;48.762;44.822;2023-05-18T23:00:14;101229.44;;;15.15;54.99
75998;BME280;64685;48.762;44.822;2023-05-18T23:05:17;101226.97;;;15.14;54.75
75998;BME280;64685;48.762;44.822;2023-05-18T23:10:20;101235.75;;;15.12;54.56
75998;BME280;64685;48.762;44.822;2023-05-18T23:15:22;101232.53;;;15.22;54.03
75998;BME280;64685;48.762;44.822;2023-05-18T23:20:25;101239.00;;;15.23;53.43
75998;BME280;64685;48.762;44.822;2023-05-18T23:25:28;101240.94;;;15.31;52.70
75998;BME280;64685;48.762;44.822;2023-05-18T23:30:31;101238.28;;;15.34;52.34
75998;BME280;64685;48.762;44.822;2023-05-18T23:35:34;101254.72;;;15.24;52.95
75998;BME280;64685;48.762;44.822;2023-05-18T23:40:37;101243.53;;;15.15;52.95
75998;BME280;64685;48.762;44.822;2023-05-18T23:45:40;101249.19;;;15.07;53.01
75998;BME280;64685;48.762;44.822;2023-05-18T23:50:43;101256.66;;;15.03;52.56
75998;BME280;64685;48.762;44.822;2023-05-18T23:55:48;101258.66;;;15.02;52.67
